createdAt,value
2022-12-13T00:00:14.709Z,96502.47
2022-12-13T00:02:17.391Z,96504.22
2022-12-13T00:04:21.588Z,96502.47
2022-12-13T00:06:24.492Z,96490.63
2022-12-13T00:08:27.492Z,96497.41
2022-12-13T00:10:30.128Z,96501.66
2022-12-13T00:12:34.566Z,96493.22
2022-12-13T00:14:37.174Z,96501.72
2022-12-13T00:16:39.906Z,96483.16
2022-12-13T00:18:42.809Z,96489.09
2022-12-13T00:20:45.394Z,96477.25
2022-12-13T00:22:47.994Z,96476.41
2022-12-13T00:24:50.634Z,96477.28
2022-12-13T00:26:55.421Z,96479.81
2022-12-13T00:29:00.445Z,96479.81
2022-12-13T00:31:26.904Z,96475.56
2022-12-13T00:33:26.094Z,96473.78
2022-12-13T00:35:28.673Z,96474.66
2022-12-13T00:37:31.373Z,96473.75
2022-12-13T00:39:33.989Z,96464.38
2022-12-13T00:41:37.402Z,96472.84
2022-12-13T00:43:40.084Z,96477.03
2022-12-13T00:45:44.173Z,96471.06
2022-12-13T00:47:47.066Z,96468.53
2022-12-13T00:49:49.668Z,96471.03
2022-12-13T00:51:52.283Z,96466.81
2022-12-13T00:53:56.155Z,96461.75
2022-12-13T00:55:58.698Z,96459.19
2022-12-13T00:58:01.238Z,96463.41
2022-12-13T01:00:04.852Z,96458.31
2022-12-13T01:02:08.826Z,96453.28
2022-12-13T01:04:11.933Z,96448.06
2022-12-13T01:06:16.738Z,96444.63
2022-12-13T01:08:19.780Z,96451.41
2022-12-13T01:10:22.515Z,96449.63
2022-12-13T01:12:25.357Z,96443.69
2022-12-13T01:14:28.828Z,96444.56
2022-12-13T01:16:31.515Z,96438.59
2022-12-13T01:18:36.313Z,96447.91
2022-12-13T01:20:39.455Z,96448.78
2022-12-13T01:22:42.035Z,96447.97
2022-12-13T01:24:44.767Z,96447.03
2022-12-13T01:26:47.620Z,96449.63
2022-12-13T01:28:50.354Z,96446.19
2022-12-13T01:30:57.542Z,96443.63
2022-12-13T01:33:00.108Z,96434.31
2022-12-13T01:35:04.108Z,96439.41
2022-12-13T01:37:06.984Z,96440.28
2022-12-13T01:39:14.629Z,96433.50
2022-12-13T01:41:21.175Z,96434.31
2022-12-13T01:43:50.479Z,96430.84
2022-12-13T01:45:53.129Z,96427.41
2022-12-13T01:48:00.488Z,96424.81
2022-12-13T01:50:10.075Z,96419.75
2022-12-13T01:52:14.986Z,96420.59
2022-12-13T01:54:22.412Z,96418.06
2022-12-13T01:56:30.574Z,96423.16
2022-12-13T01:58:35.287Z,96419.75
2022-12-13T02:00:38.319Z,96418.81
2022-12-13T02:02:44.008Z,96407.00
2022-12-13T02:04:51.786Z,96407.03
2022-12-13T02:06:58.377Z,96416.34
2022-12-13T02:09:01.679Z,96415.75
2022-12-13T02:11:05.430Z,96404.56
2022-12-13T02:13:08.458Z,96407.81
2022-12-13T02:15:14.525Z,96407.81
2022-12-13T02:17:25.031Z,96405.25
2022-12-13T02:20:04.231Z,96404.41
2022-12-13T02:22:26.358Z,96398.50
2022-12-13T02:24:53.020Z,96403.53
2022-12-13T02:27:32.555Z,96400.91
2022-12-13T02:30:19.451Z,96401.72
2022-12-13T02:32:31.170Z,96405.06
2022-12-13T02:34:37.085Z,96400.06
2022-12-13T02:36:47.592Z,96393.25
2022-12-13T02:38:56.843Z,96403.47
2022-12-13T02:41:07.939Z,96406.88
2022-12-13T02:43:17.796Z,96402.63
2022-12-13T02:45:30.977Z,96395.84
2022-12-13T02:47:36.695Z,96399.19
2022-12-13T02:49:43.258Z,96392.41
2022-12-13T02:51:46.632Z,96399.19
2022-12-13T02:53:49.635Z,96398.47
2022-12-13T02:55:52.323Z,96398.34
2022-12-13T02:57:57.982Z,96388.03
2022-12-13T03:00:06.108Z,96391.38
2022-12-13T03:02:31.275Z,96384.63
2022-12-13T03:05:07.460Z,96384.63
2022-12-13T03:07:21.400Z,96382.88
2022-12-13T03:09:38.015Z,96390.47
2022-12-13T03:12:16.498Z,96381.94
2022-12-13T03:14:21.663Z,96381.88
2022-12-13T03:16:30.017Z,96384.47
2022-12-13T03:18:34.779Z,96377.78
2022-12-13T03:20:38.749Z,96363.38
2022-12-13T03:22:41.357Z,96372.63
2022-12-13T03:24:43.970Z,96375.97
2022-12-13T03:26:47.663Z,96366.63
2022-12-13T03:28:51.474Z,96376.72
2022-12-13T03:30:54.159Z,96362.31
2022-12-13T03:32:56.786Z,96360.66
2022-12-13T03:35:00.592Z,96368.31
2022-12-13T03:37:05.586Z,96369.19
2022-12-13T03:39:08.422Z,96360.72
2022-12-13T03:41:14.263Z,96362.34
2022-12-13T03:43:21.614Z,96356.41
2022-12-13T03:45:25.368Z,96358.94
2022-12-13T03:47:27.926Z,96354.69
2022-12-13T03:49:35.552Z,96355.47
2022-12-13T03:51:38.545Z,96350.34
2022-12-13T03:53:43.347Z,96356.22
2022-12-13T03:55:45.966Z,96349.53
2022-12-13T03:57:48.903Z,96345.28
2022-12-13T03:59:51.649Z,96343.59
2022-12-13T04:01:54.551Z,96346.91
2022-12-13T04:03:57.185Z,96340.97
2022-12-13T04:05:59.877Z,96348.47
2022-12-13T04:08:02.712Z,96355.13
2022-12-13T04:10:25.984Z,96347.56
2022-12-13T04:12:48.707Z,96350.09
2022-12-13T04:14:51.610Z,96348.34
2022-12-13T04:16:54.302Z,96352.66
2022-12-13T04:18:56.916Z,96351.81
2022-12-13T04:20:59.637Z,96358.66
2022-12-13T04:23:09.853Z,96349.41
2022-12-13T04:25:14.565Z,96351.97
2022-12-13T04:27:17.348Z,96351.97
2022-12-13T04:29:20.296Z,96349.47
2022-12-13T04:31:23.417Z,96351.22
2022-12-13T04:33:26.272Z,96348.63
2022-12-13T04:35:29.227Z,96357.13
2022-12-13T04:37:32.412Z,96350.38
2022-12-13T04:39:35.025Z,96353.75
2022-12-13T04:41:39.993Z,96352.22
2022-12-13T04:43:42.615Z,96346.94
2022-12-13T04:45:45.889Z,96352.00
2022-12-13T04:47:48.520Z,96354.47
2022-12-13T04:49:51.119Z,96344.25
2022-12-13T04:51:58.931Z,96338.34
2022-12-13T04:54:13.129Z,96338.34
2022-12-13T04:56:26.151Z,96345.22
2022-12-13T04:58:30.298Z,96332.47
2022-12-13T05:00:32.903Z,96337.50
2022-12-13T05:02:35.540Z,96333.50
2022-12-13T05:04:38.235Z,96336.69
2022-12-13T05:06:43.201Z,96331.47
2022-12-13T05:08:45.853Z,96334.00
2022-12-13T05:10:48.464Z,96338.22
2022-12-13T05:12:51.046Z,96329.72
2022-12-13T05:14:55.101Z,96338.09
2022-12-13T05:16:57.749Z,96321.19
2022-12-13T05:19:00.449Z,96332.94
2022-12-13T05:21:03.571Z,96328.72
2022-12-13T05:23:06.196Z,96331.25
2022-12-13T05:25:09.631Z,96329.53
2022-12-13T05:27:24.724Z,96320.03
2022-12-13T05:29:29.619Z,96326.03
2022-12-13T05:31:33.685Z,96315.94
2022-12-13T05:33:36.554Z,96322.63
2022-12-13T05:35:39.566Z,96326.03
2022-12-13T05:37:42.255Z,96317.56
2022-12-13T05:39:44.842Z,96324.34
2022-12-13T05:41:47.482Z,96333.59
2022-12-13T05:43:50.125Z,96331.97
2022-12-13T05:49:18.569Z,96324.28
2022-12-13T05:51:21.224Z,96314.13
2022-12-13T05:53:30.906Z,96314.97
2022-12-13T05:55:34.323Z,96320.94
2022-12-13T05:57:37.095Z,96320.09
2022-12-13T05:59:40.007Z,96321.81
2022-12-13T06:01:43.713Z,96316.78
2022-12-13T06:03:47.095Z,96317.59
2022-12-13T06:05:51.189Z,96319.31
2022-12-13T06:07:57.613Z,96315.91
2022-12-13T06:10:10.665Z,96307.44
2022-12-13T06:12:31.497Z,96315.91
2022-12-13T06:14:35.272Z,96312.50
2022-12-13T06:16:40.723Z,96313.31
2022-12-13T06:18:43.350Z,96315.00
2022-12-13T06:20:47.103Z,96309.91
2022-12-13T06:22:51.067Z,96310.75
2022-12-13T06:24:53.955Z,96310.81
2022-12-13T06:26:56.615Z,96317.53
2022-12-13T06:28:59.190Z,96315.75
2022-12-13T06:31:02.292Z,96311.50
2022-12-13T06:33:05.029Z,96313.19
2022-12-13T06:35:27.177Z,96319.13
2022-12-13T06:37:30.873Z,96314.94
2022-12-13T06:39:35.152Z,96315.00
2022-12-13T06:41:37.923Z,96315.84
2022-12-13T06:43:43.680Z,96320.03
2022-12-13T06:45:46.414Z,96320.09
2022-12-13T06:47:49.070Z,96317.56
2022-12-13T06:49:51.644Z,96321.03
2022-12-13T06:51:54.789Z,96328.63
2022-12-13T06:53:57.410Z,96319.28
2022-12-13T06:56:07.301Z,96322.63
2022-12-13T06:58:09.882Z,96323.50
2022-12-13T07:00:13.672Z,96320.09
2022-12-13T07:02:25.978Z,96318.38
2022-12-13T07:04:30.958Z,96329.41
2022-12-13T07:06:33.899Z,96322.69
2022-12-13T07:08:36.976Z,96326.97
2022-12-13T07:10:41.265Z,96328.63
2022-12-13T07:12:45.247Z,96336.19
2022-12-13T07:14:48.856Z,96337.13
2022-12-13T07:16:51.539Z,96337.16
2022-12-13T07:19:01.090Z,96336.25
2022-12-13T07:21:05.407Z,96337.09
2022-12-13T07:23:08.095Z,96341.28
2022-12-13T07:25:27.006Z,96342.16
2022-12-13T07:27:31.377Z,96346.28
2022-12-13T07:29:35.334Z,96351.38
2022-12-13T07:31:38.302Z,96361.50
2022-12-13T07:33:41.351Z,96359.88
2022-12-13T07:35:44.133Z,96366.56
2022-12-13T07:37:46.767Z,96364.13
2022-12-13T07:39:49.411Z,96365.63
2022-12-13T07:41:54.529Z,96367.28
2022-12-13T07:43:57.300Z,96365.63
2022-12-13T07:46:02.630Z,96363.09
2022-12-13T07:48:06.784Z,96371.59
2022-12-13T07:50:23.988Z,96372.53
2022-12-13T07:52:27.303Z,96369.88
2022-12-13T07:54:29.890Z,96371.63
2022-12-13T07:56:33.736Z,96366.44
2022-12-13T07:58:36.858Z,96364.84
2022-12-13T08:00:40.345Z,96363.22
2022-12-13T08:02:50.370Z,96366.66
2022-12-13T08:04:54.876Z,96362.53
2022-12-13T08:06:57.959Z,96362.56
2022-12-13T08:09:00.605Z,96360.97
2022-12-13T08:11:04.480Z,96366.13
2022-12-13T08:13:07.289Z,96369.56
2022-12-13T08:15:13.934Z,96368.78
2022-12-13T08:17:17.051Z,96370.53
2022-12-13T08:19:21.288Z,96371.44
2022-12-13T08:21:52.677Z,96363.94
2022-12-13T08:23:46.548Z,96368.25
2022-12-13T08:25:52.723Z,96367.41
2022-12-13T08:27:55.395Z,96375.94
2022-12-13T08:30:05.365Z,96375.13
2022-12-13T08:32:11.463Z,96384.59
2022-12-13T08:34:14.078Z,96379.56
2022-12-13T08:36:18.974Z,96383.88
2022-12-13T08:38:22.751Z,96377.16
2022-12-13T08:40:25.870Z,96373.91
2022-12-13T08:42:28.867Z,96377.28
2022-12-13T08:44:31.747Z,96381.53
2022-12-13T08:46:34.526Z,96383.31
2022-12-13T08:48:44.278Z,96380.78
2022-12-13T08:50:48.305Z,96377.44
2022-12-13T08:52:52.900Z,96373.25
2022-12-13T08:54:55.566Z,96380.06
2022-12-13T08:56:59.143Z,96383.47
2022-12-13T08:59:01.788Z,96381.78
2022-12-13T09:01:07.765Z,96371.69
2022-12-13T09:03:10.496Z,96369.19
2022-12-13T09:05:32.978Z,96370.03
2022-12-13T09:07:39.413Z,96375.16
2022-12-13T09:09:43.414Z,96373.50
2022-12-13T09:11:46.065Z,96364.22
2022-12-13T09:13:49.357Z,96365.91
2022-12-13T09:15:52.789Z,96367.69
2022-12-13T09:18:04.489Z,96366.88
2022-12-13T09:20:28.509Z,96370.34
2022-12-13T09:22:33.228Z,96361.09
2022-12-13T09:24:37.205Z,96368.72
2022-12-13T09:26:41.221Z,96361.97
2022-12-13T09:28:44.022Z,96369.59
2022-12-13T09:30:46.725Z,96373.91
2022-12-13T09:32:50.528Z,96364.63
2022-12-13T09:34:53.222Z,96371.47
2022-12-13T09:37:01.571Z,96374.03
2022-12-13T09:39:05.492Z,96369.84
2022-12-13T09:41:19.685Z,96368.16
2022-12-13T09:43:32.008Z,96373.38
2022-12-13T09:45:36.646Z,96377.56
2022-12-13T09:47:48.128Z,96375.91
2022-12-13T09:49:52.678Z,96366.63
2022-12-13T09:52:11.026Z,96372.59
2022-12-13T09:54:19.389Z,96371.75
2022-12-13T09:56:23.921Z,96368.41
2022-12-13T09:58:31.798Z,96364.16
2022-12-13T10:00:36.412Z,96365.06
2022-12-13T10:02:45.069Z,96360.88
2022-12-13T10:04:48.049Z,96362.56
2022-12-13T10:06:54.241Z,96361.78
2022-12-13T10:08:59.318Z,96358.41
2022-12-13T10:11:05.091Z,96358.44
2022-12-13T10:13:16.147Z,96360.13
2022-12-13T10:15:22.779Z,96355.91
2022-12-13T10:17:29.679Z,96355.91
2022-12-13T10:19:44.597Z,96357.66
2022-12-13T10:21:51.490Z,96352.56
2022-12-13T10:24:26.043Z,96351.75
2022-12-13T10:26:24.380Z,96345.00
2022-12-13T10:28:30.202Z,96344.16
2022-12-13T10:30:42.503Z,96347.59
2022-12-13T10:32:55.983Z,96334.06
2022-12-13T10:34:58.698Z,96346.78
2022-12-13T10:37:13.696Z,96340.00
2022-12-13T10:39:18.677Z,96336.66
2022-12-13T10:41:36.125Z,96335.84
2022-12-13T10:43:39.597Z,96330.81
2022-12-13T10:45:45.216Z,96331.66
2022-12-13T10:47:48.018Z,96329.09
2022-12-13T10:49:58.993Z,96334.25
2022-12-13T10:52:02.949Z,96324.91
2022-12-13T10:54:06.434Z,96321.56
2022-12-13T10:56:09.241Z,96319.88
2022-12-13T10:58:20.894Z,96316.47
2022-12-13T11:00:35.324Z,96317.34
2022-12-13T11:02:41.534Z,96307.19
2022-12-13T11:04:44.582Z,96307.19
2022-12-13T11:06:48.782Z,96307.19
2022-12-13T11:08:51.398Z,96298.72
2022-12-13T11:11:02.879Z,96298.72
2022-12-13T11:13:08.398Z,96296.16
2022-12-13T11:15:23.121Z,96301.28
2022-12-13T11:17:30.961Z,96297.88
2022-12-13T11:19:40.111Z,96294.50
2022-12-13T11:21:48.625Z,96285.16
2022-12-13T11:23:51.294Z,96293.66
2022-12-13T11:25:57.714Z,96292.84
2022-12-13T11:28:26.159Z,96286.03
2022-12-13T11:30:38.516Z,96277.56
2022-12-13T11:32:59.504Z,96271.63
2022-12-13T11:35:14.750Z,96275.84
2022-12-13T11:37:27.370Z,96276.69
2022-12-13T11:39:33.476Z,96267.34
2022-12-13T11:41:39.905Z,96266.50
2022-12-13T11:43:49.189Z,96271.59
2022-12-13T11:45:56.531Z,96269.03
2022-12-13T11:48:05.693Z,96264.78
2022-12-13T11:50:33.127Z,96262.22
2022-12-13T11:52:41.830Z,96257.16
2022-12-13T11:54:51.415Z,96253.72
2022-12-13T11:57:00.595Z,96262.22
2022-12-13T11:59:20.523Z,96268.19
2022-12-13T12:01:38.190Z,96263.91
2022-12-13T12:03:46.322Z,96270.72
2022-12-13T12:05:55.824Z,96268.16
2022-12-13T12:08:31.791Z,96271.56
2022-12-13T12:10:31.831Z,96261.34
2022-12-13T12:12:37.060Z,96266.44
2022-12-13T12:14:47.683Z,96264.72
2022-12-13T12:16:59.544Z,96263.03
2022-12-13T12:19:02.364Z,96257.06
2022-12-13T12:21:17.851Z,96250.25
2022-12-13T12:23:29.478Z,96244.28
2022-12-13T12:25:42.420Z,96251.06
2022-12-13T12:27:52.921Z,96248.50
2022-12-13T12:30:12.100Z,96234.88
2022-12-13T12:32:26.302Z,96251.88
2022-12-13T12:34:39.694Z,96245.94
2022-12-13T12:36:53.066Z,96247.63
2022-12-13T12:39:35.242Z,96248.44
2022-12-13T12:41:51.289Z,96245.06
2022-12-13T12:44:01.274Z,96248.44
2022-12-13T12:46:18.200Z,96243.31
2022-12-13T12:51:05.979Z,96225.41
2022-12-13T12:53:26.918Z,96227.09
2022-12-13T12:55:45.810Z,96226.22
2022-12-13T12:58:01.614Z,96231.34
2022-12-13T13:00:12.038Z,96228.78
2022-12-13T13:02:23.560Z,96220.28
2022-12-13T13:04:33.097Z,96230.47
2022-12-13T13:06:39.720Z,96229.63
2022-12-13T13:08:53.375Z,96228.72
2022-12-13T13:11:01.971Z,96235.53
2022-12-13T13:13:11.619Z,96231.28
2022-12-13T13:15:55.616Z,96230.41
2022-12-13T13:17:59.162Z,96231.25
2022-12-13T13:20:18.240Z,96224.44
2022-12-13T13:22:32.198Z,96224.41
2022-12-13T13:24:36.516Z,96221.88
2022-12-13T13:26:42.608Z,96215.91
2022-12-13T13:28:45.230Z,96221.88
2022-12-13T13:31:04.621Z,96217.63
2022-12-13T13:33:43.151Z,96216.75
2022-12-13T13:35:50.246Z,96212.50
2022-12-13T13:37:53.008Z,96208.22
2022-12-13T13:40:00.407Z,96209.94
2022-12-13T13:42:24.428Z,96215.03
2022-12-13T13:45:01.847Z,96211.63
2022-12-13T13:47:15.882Z,96209.03
2022-12-13T13:49:18.583Z,96211.59
2022-12-13T13:54:53.296Z,96216.69
2022-12-13T13:58:08.784Z,96209.03
2022-12-13T14:00:18.299Z,96209.00
2022-12-13T14:02:51.553Z,96203.88
2022-12-13T14:05:14.987Z,96210.69
2022-12-13T14:08:02.304Z,96209.00
2022-12-13T14:10:19.257Z,96206.44
2022-12-13T14:12:52.674Z,96213.25
2022-12-13T14:15:25.636Z,96215.81
2022-12-13T14:18:21.333Z,96213.25
2022-12-13T14:20:43.739Z,96219.25
2022-12-13T14:22:47.380Z,96216.69
2022-12-13T14:24:57.031Z,96215.84
2022-12-13T14:27:12.405Z,96218.41
2022-12-13T14:29:19.392Z,96216.69
2022-12-13T14:31:24.960Z,96224.34
2022-12-13T14:33:28.526Z,96216.69
2022-12-13T14:35:33.824Z,96221.78
2022-12-13T14:37:38.453Z,96214.13
2022-12-13T14:39:45.851Z,96213.25
2022-12-13T14:41:50.120Z,96220.94
2022-12-13T14:44:16.420Z,96219.19
2022-12-13T14:46:19.254Z,96219.22
2022-12-13T14:48:28.877Z,96223.50
2022-12-13T14:50:35.343Z,96219.28
2022-12-13T14:52:41.054Z,96211.59
2022-12-13T14:54:48.552Z,96214.16
2022-12-13T14:56:59.539Z,96218.44
2022-12-13T14:59:04.002Z,96223.53
2022-12-13T15:01:23.669Z,96218.44
2022-12-13T15:03:32.394Z,96217.59
2022-12-13T15:05:47.146Z,96209.09
2022-12-13T15:07:53.779Z,96199.72
2022-12-13T15:09:59.637Z,96200.59
2022-12-13T15:12:23.786Z,96199.72
2022-12-13T15:14:26.694Z,96195.47
2022-12-13T15:16:30.808Z,96197.19
2022-12-13T15:18:34.703Z,96187.81
2022-12-13T15:20:40.996Z,96186.97
2022-12-13T15:22:43.936Z,96182.69
2022-12-13T15:24:48.724Z,96180.97
2022-12-13T15:26:51.881Z,96180.16
2022-12-13T15:28:56.780Z,96173.34
2022-12-13T15:31:01.075Z,96172.50
2022-12-13T15:33:07.765Z,96170.81
2022-12-13T15:35:27.668Z,96164.00
2022-12-13T15:37:33.312Z,96158.88
2022-12-13T15:39:40.742Z,96167.41
2022-12-13T15:41:52.061Z,96170.00
2022-12-13T15:43:57.730Z,96164.00
2022-12-13T15:46:00.789Z,96164.00
2022-12-13T15:48:05.072Z,96155.50
2022-12-13T15:50:08.572Z,96156.34
2022-12-13T15:52:28.329Z,96152.94
2022-12-13T15:54:31.524Z,96157.22
2022-12-13T15:56:36.451Z,96157.22
2022-12-13T15:58:39.639Z,96158.94
2022-12-13T16:00:49.645Z,96152.97
2022-12-13T16:02:56.420Z,96152.09
2022-12-13T16:05:08.874Z,96147.00
2022-12-13T16:07:23.006Z,96134.19
2022-12-13T16:09:28.527Z,96130.81
2022-12-13T16:11:34.525Z,96130.81
2022-12-13T16:13:39.942Z,96134.25
2022-12-13T16:15:51.802Z,96129.16
2022-12-13T16:18:15.574Z,96140.19
2022-12-13T16:20:21.485Z,96133.41
2022-12-13T16:22:24.375Z,96133.38
2022-12-13T16:24:27.113Z,96131.69
2022-12-13T16:26:31.171Z,96139.34
2022-12-13T16:28:33.906Z,96139.34
2022-12-13T16:31:03.911Z,96136.78
2022-12-13T16:33:26.675Z,96136.78
2022-12-13T16:35:30.443Z,96136.75
2022-12-13T16:37:33.081Z,96141.84
2022-12-13T16:39:35.780Z,96134.16
2022-12-13T16:41:40.137Z,96136.72
2022-12-13T16:43:52.572Z,96139.31
2022-12-13T16:45:56.580Z,96150.38
2022-12-13T16:47:59.338Z,96146.13
2022-12-13T16:50:04.545Z,96141.88
2022-12-13T16:52:08.510Z,96141.88
2022-12-13T16:54:11.140Z,96140.19
2022-12-13T16:56:16.349Z,96146.16
2022-12-13T16:58:21.174Z,96142.78
2022-12-13T17:00:24.033Z,96135.06
2022-12-13T17:02:26.731Z,96134.22
2022-12-13T17:04:29.529Z,96127.41
2022-12-13T17:06:32.239Z,96122.28
2022-12-13T17:08:36.167Z,96128.22
2022-12-13T17:10:43.915Z,96126.53
2022-12-13T17:12:47.133Z,96117.16
2022-12-13T17:14:49.738Z,96124.00
2022-12-13T17:16:52.389Z,96132.50
2022-12-13T17:18:56.723Z,96122.22
2022-12-13T17:20:59.551Z,96131.69
2022-12-13T17:23:02.493Z,96124.84
2022-12-13T17:25:07.420Z,96134.25
2022-12-13T17:27:10.115Z,96135.97
2022-12-13T17:29:17.556Z,96131.69
2022-12-13T17:31:21.604Z,96138.53
2022-12-13T17:33:25.651Z,96130.91
2022-12-13T17:35:29.255Z,96134.31
2022-12-13T17:37:32.084Z,96132.59
2022-12-13T17:39:34.714Z,96130.03
2022-12-13T17:41:39.050Z,96128.31
2022-12-13T17:43:43.317Z,96136.88
2022-12-13T17:45:46.518Z,96129.19
2022-12-13T17:47:49.283Z,96125.75
2022-12-13T17:49:51.869Z,96130.03
2022-12-13T17:51:55.549Z,96130.00
2022-12-13T17:53:58.299Z,96121.53
2022-12-13T17:56:02.944Z,96118.09
2022-12-13T17:58:06.994Z,96115.53
2022-12-13T18:00:10.908Z,96116.34
2022-12-13T18:02:14.047Z,96114.59
2022-12-13T18:04:17.411Z,96120.59
2022-12-13T18:06:20.524Z,96119.75
2022-12-13T18:08:23.260Z,96116.34
2022-12-13T18:10:29.839Z,96108.69
2022-12-13T18:12:33.936Z,96113.81
2022-12-13T18:14:37.896Z,96101.06
2022-12-13T18:16:40.970Z,96105.31
2022-12-13T18:18:43.831Z,96098.47
2022-12-13T18:20:57.700Z,96111.25
2022-12-13T18:23:00.283Z,96108.69
2022-12-13T18:25:02.919Z,96112.97
2022-12-13T18:27:05.732Z,96111.28
2022-12-13T18:29:08.375Z,96100.22
2022-12-13T18:31:15.337Z,96101.06
2022-12-13T18:33:18.012Z,96106.19
2022-12-13T18:35:20.788Z,96101.91
2022-12-13T18:37:23.454Z,96106.22
2022-12-13T18:39:26.039Z,96113.88
2022-12-13T18:41:30.718Z,96112.16
2022-12-13T18:43:33.359Z,96104.50
2022-12-13T18:45:35.941Z,96103.59
2022-12-13T18:47:39.863Z,96114.63
2022-12-13T18:49:43.188Z,96121.44
2022-12-13T18:51:58.065Z,96114.69
2022-12-13T18:54:03.411Z,96105.28
2022-12-13T18:56:12.875Z,96106.03
2022-12-13T18:58:18.867Z,96097.56
2022-12-13T19:00:21.516Z,96096.81
2022-12-13T19:02:24.306Z,96096.84
2022-12-13T19:04:28.321Z,96095.16
2022-12-13T19:06:31.014Z,96096.03
2022-12-13T19:08:34.175Z,96096.03
2022-12-13T19:10:36.830Z,96106.25
2022-12-13T19:12:39.994Z,96104.56
2022-12-13T19:14:45.284Z,96097.78
2022-12-13T19:16:57.565Z,96088.41
2022-12-13T19:19:00.404Z,96085.03
2022-12-13T19:21:08.013Z,96077.34
2022-12-13T19:23:11.831Z,96065.41
2022-12-13T19:25:14.539Z,96057.75
2022-12-13T19:27:18.203Z,96053.47
2022-12-13T19:29:21.769Z,96054.31
2022-12-13T19:31:30.565Z,96051.75
2022-12-13T19:33:34.600Z,96032.16
2022-12-13T19:35:37.366Z,96027.03
2022-12-13T19:37:41.322Z,96025.28
2022-12-13T19:39:43.921Z,96023.59
2022-12-13T19:41:46.843Z,96022.66
2022-12-13T19:43:52.966Z,96019.28
2022-12-13T19:45:55.885Z,96022.59
2022-12-13T19:47:58.502Z,96021.81
2022-12-13T19:50:01.171Z,96022.72
2022-12-13T19:52:03.834Z,96014.09
2022-12-13T19:54:08.127Z,96005.63
2022-12-13T19:56:12.673Z,96003.84
2022-12-13T19:58:15.293Z,96002.22
2022-12-13T20:00:18.398Z,96005.66
2022-12-13T20:02:21.004Z,96013.38
2022-12-13T20:04:23.709Z,96003.13
2022-12-13T20:06:26.294Z,96004.81
2022-12-13T20:08:29.056Z,95998.81
2022-12-13T20:10:35.472Z,95993.75
2022-12-13T20:12:40.985Z,95995.34
2022-12-13T20:14:43.972Z,95990.31
2022-12-13T20:16:46.747Z,95995.44
2022-12-13T20:18:54.457Z,95999.66
2022-12-13T20:21:11.485Z,96007.31
2022-12-13T20:23:14.815Z,95998.81
2022-12-13T20:25:17.800Z,95996.28
2022-12-13T20:27:24.526Z,95995.41
2022-12-13T20:29:27.167Z,95997.06
2022-12-13T20:31:31.598Z,95985.16
2022-12-13T20:33:34.332Z,95986.75
2022-12-13T20:35:54.246Z,95993.59
2022-12-13T20:38:00.617Z,96001.31
2022-12-13T20:40:03.452Z,95997.06
2022-12-13T20:42:06.375Z,95993.59
2022-12-13T20:44:13.231Z,95985.09
2022-12-13T20:46:16.268Z,95991.94
2022-12-13T20:48:18.988Z,95986.00
2022-12-13T20:50:21.776Z,95989.47
2022-12-13T20:52:24.596Z,95985.19
2022-12-13T20:54:27.320Z,95985.19
2022-12-13T20:56:31.765Z,95992.00
2022-12-13T20:58:39.726Z,95983.47
2022-12-13T21:00:44.181Z,95984.28
2022-12-13T21:02:46.846Z,95991.06
2022-12-13T21:04:49.450Z,95991.09
2022-12-13T21:06:52.258Z,95984.22
2022-12-13T21:08:54.713Z,95983.38
2022-12-13T21:11:01.944Z,95987.63
2022-12-13T21:13:07.748Z,95981.66
2022-12-13T21:15:10.625Z,95985.13
2022-12-13T21:17:16.877Z,95985.13
2022-12-13T21:19:22.407Z,95974.88
2022-12-13T21:21:25.537Z,95977.38
2022-12-13T21:23:30.062Z,95979.91
2022-12-13T21:25:32.753Z,95975.69
2022-12-13T21:27:35.441Z,95973.16
2022-12-13T21:29:38.073Z,95978.22
2022-12-13T21:31:42.810Z,95974.84
2022-12-13T21:33:49.558Z,95980.81
2022-12-13T21:35:52.268Z,95973.09
2022-12-13T21:37:55.226Z,95978.25
2022-12-13T21:39:57.816Z,95975.69
2022-12-13T21:42:00.494Z,95970.59
2022-12-13T21:44:03.096Z,95963.75
2022-12-13T21:46:08.473Z,95962.94
2022-12-13T21:48:11.174Z,95954.38
2022-12-13T21:50:15.128Z,95962.06
2022-12-13T21:52:17.824Z,95970.53
2022-12-13T21:54:20.758Z,95972.25
2022-12-13T21:56:43.121Z,95962.03
2022-12-13T21:59:04.012Z,95945.88
2022-12-13T22:01:06.657Z,95944.94
2022-12-13T22:03:09.303Z,95941.53
2022-12-13T22:05:11.871Z,95937.31
2022-12-13T22:07:17.493Z,95936.44
2022-12-13T22:09:20.107Z,95937.38
2022-12-13T22:11:22.759Z,95927.09
2022-12-13T22:13:25.344Z,95928.75
2022-12-13T22:15:27.934Z,95927.94
2022-12-13T22:17:35.789Z,95914.31
2022-12-13T22:19:39.113Z,95917.72
2022-12-13T22:21:42.200Z,95916.03
2022-12-13T22:23:46.155Z,95914.31
2022-12-13T22:25:48.961Z,95904.91
2022-12-13T22:27:51.634Z,95894.66
2022-12-13T22:29:56.545Z,95905.75
2022-12-13T22:32:00.198Z,95913.47
2022-12-13T22:34:02.855Z,95912.56
2022-12-13T22:36:05.634Z,95900.69
2022-12-13T22:38:08.359Z,95894.56
2022-12-13T22:40:13.315Z,95899.72
2022-12-13T22:42:16.453Z,95896.34
2022-12-13T22:44:21.355Z,95888.69
2022-12-13T22:46:23.988Z,95883.56
2022-12-13T22:48:26.912Z,95878.47
2022-12-13T22:50:29.865Z,95882.66
2022-12-13T22:52:34.154Z,95877.56
2022-12-13T22:54:36.904Z,95870.72
2022-12-13T22:56:40.942Z,95872.38
2022-12-13T22:58:43.688Z,95874.88
2022-12-13T23:00:46.358Z,95881.72
2022-12-13T23:02:49.096Z,95881.72
2022-12-13T23:04:51.756Z,95880.72
2022-12-13T23:06:54.353Z,95870.56
2022-12-13T23:08:58.807Z,95862.97
2022-12-13T23:11:19.195Z,95856.19
2022-12-13T23:13:23.128Z,95863.81
2022-12-13T23:15:25.761Z,95861.13
2022-12-13T23:17:28.363Z,95862.06
2022-12-13T23:19:41.427Z,95860.41
2022-12-13T23:21:51.320Z,95859.59
2022-12-13T23:23:56.604Z,95861.34
2022-12-13T23:26:08.795Z,95858.78
2022-12-13T23:28:11.353Z,95861.25
2022-12-13T23:30:15.475Z,95864.72
2022-12-13T23:32:18.117Z,95870.69
2022-12-13T23:34:21.347Z,95871.53
2022-12-13T23:36:26.091Z,95873.88
2022-12-13T23:38:29.309Z,95878.28
2022-12-13T23:40:32.333Z,95872.28
2022-12-13T23:42:34.948Z,95873.03
2022-12-13T23:44:37.697Z,95861.13
2022-12-13T23:46:41.773Z,95861.13
2022-12-13T23:48:51.444Z,95862.09
2022-12-13T23:50:54.146Z,95855.16
2022-12-13T23:52:56.760Z,95861.94
2022-12-13T23:54:59.365Z,95856.06
2022-12-13T23:57:01.966Z,95853.66
2022-12-13T23:59:04.532Z,95845.13
